createdAt,value
2023-04-22T00:02:16.414Z,7.30
2023-04-22T00:04:45.564Z,6.90
2023-04-22T00:07:13.966Z,7.60
2023-04-22T00:09:41.466Z,7.20
2023-04-22T00:12:08.415Z,7.00
2023-04-22T00:14:36.214Z,7.00
2023-04-22T00:17:02.983Z,7.60
2023-04-22T00:19:31.394Z,7.60
2023-04-22T00:21:58.143Z,7.80
2023-04-22T00:24:25.128Z,7.30
2023-04-22T00:26:51.855Z,7.40
2023-04-22T00:29:18.642Z,8.10
2023-04-22T00:31:45.542Z,7.50
2023-04-22T00:34:12.319Z,7.60
2023-04-22T00:36:39.077Z,7.50
2023-04-22T00:39:06.032Z,7.40
2023-04-22T00:41:33.492Z,7.40
2023-04-22T00:44:00.257Z,7.50
2023-04-22T00:46:27.193Z,7.60
2023-04-22T00:48:53.977Z,7.60
2023-04-22T00:51:20.608Z,7.60
2023-04-22T00:53:47.315Z,6.90
2023-04-22T00:56:14.098Z,7.30
2023-04-22T00:58:40.781Z,7.30
2023-04-22T01:01:07.529Z,8.20
2023-04-22T01:03:35.922Z,7.70
2023-04-22T01:06:03.107Z,7.90
2023-04-22T01:08:30.083Z,7.90
2023-04-22T01:10:57.264Z,8.10
2023-04-22T01:13:24.241Z,8.50
2023-04-22T01:15:51.512Z,8.30
2023-04-22T01:18:18.311Z,8.90
2023-04-22T01:20:45.160Z,8.10
2023-04-22T01:23:18.410Z,8.60
2023-04-22T01:25:45.957Z,8.60
2023-04-22T01:28:13.028Z,8.90
2023-04-22T01:30:40.393Z,9.20
2023-04-22T01:33:08.684Z,8.60
2023-04-22T01:35:38.796Z,8.70
2023-04-22T01:38:06.474Z,9.20
2023-04-22T01:40:33.691Z,9.50
2023-04-22T01:43:00.614Z,8.20
2023-04-22T01:45:27.537Z,8.30
2023-04-22T01:47:54.496Z,8.40
2023-04-22T01:50:21.309Z,8.80
2023-04-22T01:52:48.133Z,8.60
2023-04-22T01:55:14.952Z,8.50
2023-04-22T01:57:43.576Z,8.80
2023-04-22T02:00:10.843Z,8.40
2023-04-22T02:02:40.973Z,8.70
2023-04-22T02:05:08.156Z,9.70
2023-04-22T02:07:35.831Z,9.10
2023-04-22T02:10:05.726Z,8.50
2023-04-22T02:12:32.604Z,10.50
2023-04-22T02:14:59.452Z,10.60
2023-04-22T02:17:26.723Z,10.90
2023-04-22T02:19:53.608Z,11.40
2023-04-22T02:22:21.517Z,11.00
2023-04-22T02:24:50.725Z,11.00
2023-04-22T02:27:17.468Z,10.20
2023-04-22T02:29:45.567Z,9.30
2023-04-22T02:32:12.573Z,10.10
2023-04-22T02:34:39.733Z,9.20
2023-04-22T02:37:06.384Z,9.10
2023-04-22T02:39:34.205Z,7.90
2023-04-22T02:42:01.215Z,8.70
2023-04-22T02:44:28.075Z,9.10
2023-04-22T02:46:55.099Z,9.00
2023-04-22T02:49:21.826Z,8.50
2023-04-22T02:51:48.757Z,8.80
2023-04-22T02:54:15.552Z,9.20
2023-04-22T02:56:42.488Z,9.40
2023-04-22T02:59:09.093Z,9.20
2023-04-22T03:01:35.840Z,8.20
2023-04-22T03:04:03.677Z,8.10
2023-04-22T03:06:31.255Z,8.30
2023-04-22T03:08:58.395Z,8.30
2023-04-22T03:11:25.957Z,8.60
2023-04-22T03:13:52.843Z,9.40
2023-04-22T03:16:25.046Z,10.10
2023-04-22T03:18:52.065Z,9.50
2023-04-22T03:21:18.755Z,11.30
2023-04-22T03:23:45.692Z,12.70
2023-04-22T03:26:13.106Z,13.30
2023-04-22T03:28:40.048Z,13.10
2023-04-22T03:31:07.384Z,12.10
2023-04-22T03:33:34.782Z,10.60
2023-04-22T03:36:07.375Z,10.40
2023-04-22T03:38:34.479Z,9.40
2023-04-22T03:41:01.229Z,9.80
2023-04-22T03:43:47.173Z,6.20
2023-04-22T03:46:15.309Z,10.90
2023-04-22T03:48:47.672Z,9.50
2023-04-22T03:51:23.581Z,10.70
2023-04-22T03:53:51.962Z,10.10
2023-04-22T03:56:20.544Z,9.40
2023-04-22T03:58:47.527Z,9.20
2023-04-22T04:01:15.496Z,8.90
2023-04-22T04:03:44.687Z,9.40
2023-04-22T04:06:11.682Z,8.80
2023-04-22T04:08:38.663Z,9.00
2023-04-22T04:11:05.394Z,8.70
2023-04-22T04:13:32.705Z,8.30
2023-04-22T04:16:11.298Z,9.70
2023-04-22T04:18:39.537Z,8.70
2023-04-22T04:21:06.489Z,9.10
2023-04-22T04:23:35.293Z,8.90
2023-04-22T04:26:02.187Z,9.60
2023-04-22T04:28:31.947Z,8.50
2023-04-22T04:30:59.517Z,8.90
2023-04-22T04:33:26.995Z,9.20
2023-04-22T04:35:53.697Z,9.70
2023-04-22T04:38:24.472Z,9.10
2023-04-22T04:40:52.109Z,8.10
2023-04-22T04:43:25.194Z,9.20
2023-04-22T04:46:00.294Z,8.50
2023-04-22T04:48:35.387Z,9.20
2023-04-22T04:51:07.267Z,7.80
2023-04-22T04:53:37.673Z,9.30
2023-04-22T04:56:04.496Z,8.40
2023-04-22T04:58:31.164Z,8.50
2023-04-22T05:01:15.668Z,9.20
2023-04-22T05:03:43.194Z,8.00
2023-04-22T05:06:11.768Z,8.60
2023-04-22T05:08:39.158Z,8.20
2023-04-22T05:11:08.358Z,9.40
2023-04-22T05:13:35.091Z,8.80
2023-04-22T05:16:02.215Z,8.90
2023-04-22T05:18:29.308Z,8.80
2023-04-22T05:21:00.216Z,8.10
2023-04-22T05:23:27.130Z,9.30
2023-04-22T05:25:55.196Z,8.80
2023-04-22T05:28:23.728Z,8.20
2023-04-22T05:30:53.872Z,8.30
2023-04-22T05:33:20.824Z,10.20
2023-04-22T05:35:47.655Z,8.90
2023-04-22T05:38:14.715Z,8.80
2023-04-22T05:40:41.553Z,8.90
2023-04-22T05:43:09.683Z,8.50
2023-04-22T05:45:37.017Z,8.80
2023-04-22T05:48:04.125Z,8.80
2023-04-22T05:50:33.817Z,9.20
2023-04-22T05:53:05.724Z,8.70
2023-04-22T05:55:32.648Z,8.50
2023-04-22T05:57:59.396Z,8.50
2023-04-22T06:00:39.883Z,9.30
2023-04-22T06:03:13.767Z,9.10
2023-04-22T06:05:41.711Z,8.80
2023-04-22T06:08:08.567Z,9.10
2023-04-22T06:10:35.511Z,8.60
2023-04-22T06:13:02.597Z,10.00
2023-04-22T06:15:29.634Z,9.90
2023-04-22T06:17:56.556Z,9.00
2023-04-22T06:20:23.413Z,8.80
2023-04-22T06:22:50.362Z,9.30
2023-04-22T06:25:17.070Z,9.60
2023-04-22T06:27:43.735Z,9.60
2023-04-22T06:30:11.441Z,9.10
2023-04-22T06:32:40.307Z,8.60
2023-04-22T06:35:07.584Z,9.60
2023-04-22T06:37:34.732Z,9.50
2023-04-22T06:40:03.560Z,8.50
2023-04-22T06:42:53.586Z,8.90
2023-04-22T06:45:26.024Z,9.60
2023-04-22T06:48:01.646Z,9.60
2023-04-22T06:50:40.818Z,9.90
2023-04-22T06:53:09.314Z,9.20
2023-04-22T06:55:36.016Z,9.20
2023-04-22T06:58:03.019Z,9.00
2023-04-22T07:00:29.783Z,9.30
2023-04-22T07:02:57.686Z,9.50
2023-04-22T07:05:24.675Z,9.00
2023-04-22T07:07:51.591Z,9.20
2023-04-22T07:10:20.261Z,8.70
2023-04-22T07:13:06.998Z,8.00
2023-04-22T07:15:34.614Z,8.40
2023-04-22T07:18:01.597Z,8.30
2023-04-22T07:20:28.451Z,9.10
2023-04-22T07:22:55.146Z,8.70
2023-04-22T07:25:21.798Z,9.10
2023-04-22T07:27:48.554Z,8.70
2023-04-22T07:30:15.378Z,8.40
2023-04-22T07:32:42.082Z,9.40
2023-04-22T07:35:08.931Z,9.30
2023-04-22T07:37:35.603Z,9.00
2023-04-22T07:40:02.456Z,8.50
2023-04-22T07:42:29.458Z,8.50
2023-04-22T07:44:56.098Z,8.70
2023-04-22T07:47:22.823Z,8.10
2023-04-22T07:49:49.689Z,8.40
2023-04-22T07:52:16.441Z,8.50
2023-04-22T07:54:43.310Z,8.20
2023-04-22T07:57:10.110Z,8.50
2023-04-22T07:59:36.955Z,8.80
2023-04-22T08:02:03.919Z,8.40
2023-04-22T08:04:30.901Z,7.60
2023-04-22T08:06:57.637Z,8.00
2023-04-22T08:09:25.069Z,7.60
2023-04-22T08:11:51.935Z,7.90
2023-04-22T08:14:18.646Z,8.30
2023-04-22T08:16:45.312Z,8.70
2023-04-22T08:19:11.970Z,8.50
2023-04-22T08:21:39.108Z,7.80
2023-04-22T08:24:05.918Z,7.40
2023-04-22T08:26:32.780Z,8.00
2023-04-22T08:29:00.212Z,8.40
2023-04-22T08:31:26.843Z,7.60
2023-04-22T08:33:53.514Z,8.10
2023-04-22T08:36:22.329Z,8.60
2023-04-22T08:38:50.109Z,7.60
2023-04-22T08:41:18.229Z,7.20
2023-04-22T08:43:45.704Z,7.30
2023-04-22T08:46:14.829Z,7.70
2023-04-22T08:48:41.498Z,7.30
2023-04-22T08:51:08.226Z,7.20
2023-04-22T08:53:35.078Z,7.40
2023-04-22T08:56:01.749Z,6.80
2023-04-22T08:58:28.791Z,7.30
2023-04-22T09:00:55.586Z,6.60
2023-04-22T09:03:22.786Z,6.90
2023-04-22T09:05:49.446Z,7.10
2023-04-22T09:08:16.064Z,7.00
2023-04-22T09:10:42.791Z,7.30
2023-04-22T09:13:11.190Z,7.80
2023-04-22T09:15:37.826Z,7.70
2023-04-22T09:18:05.022Z,7.30
2023-04-22T09:20:33.302Z,7.30
2023-04-22T09:23:04.470Z,7.20
2023-04-22T09:25:32.650Z,7.40
2023-04-22T09:27:59.352Z,7.10
2023-04-22T09:30:33.966Z,7.30
2023-04-22T09:33:03.083Z,6.60
2023-04-22T09:35:31.445Z,7.00
2023-04-22T09:37:59.738Z,6.70
2023-04-22T09:40:27.097Z,6.70
2023-04-22T09:42:55.577Z,6.10
2023-04-22T09:45:38.726Z,6.90
2023-04-22T09:48:09.101Z,6.60
2023-04-22T09:50:37.136Z,6.90
2023-04-22T09:53:07.939Z,6.10
2023-04-22T09:55:41.156Z,5.80
2023-04-22T09:58:15.501Z,6.10
2023-04-22T10:00:53.612Z,6.30
2023-04-22T10:03:20.484Z,6.60
2023-04-22T10:05:47.356Z,5.90
2023-04-22T10:08:15.137Z,6.30
2023-04-22T10:10:42.178Z,6.80
2023-04-22T10:13:09.029Z,6.60
2023-04-22T10:15:48.229Z,6.50
2023-04-22T10:18:18.540Z,6.80
2023-04-22T10:20:45.256Z,6.00
2023-04-22T10:23:18.241Z,6.90
2023-04-22T10:25:48.752Z,5.90
2023-04-22T10:28:16.268Z,6.20
2023-04-22T10:30:43.027Z,6.10
2023-04-22T10:33:27.973Z,5.30
2023-04-22T10:36:17.208Z,5.50
2023-04-22T10:38:49.775Z,5.40
2023-04-22T10:41:16.520Z,6.10
2023-04-22T10:56:18.290Z,5.40
2023-04-22T10:58:46.478Z,6.30
2023-04-22T11:01:15.160Z,5.90
2023-04-22T11:03:43.375Z,6.00
2023-04-22T11:06:16.415Z,6.00
2023-04-22T11:08:48.602Z,6.30
2023-04-22T11:11:17.791Z,5.70
2023-04-22T11:13:47.665Z,6.40
2023-04-22T11:16:15.804Z,6.30
2023-04-22T11:18:46.690Z,5.70
2023-04-22T11:21:14.765Z,6.00
2023-04-22T11:23:50.890Z,6.00
2023-04-22T11:26:19.064Z,5.70
2023-04-22T11:28:47.632Z,6.10
2023-04-22T11:31:15.824Z,5.50
2023-04-22T11:33:44.158Z,5.60
2023-04-22T11:36:12.692Z,5.10
2023-04-22T11:38:40.843Z,5.20
2023-04-22T11:41:08.935Z,5.50
2023-04-22T11:43:46.823Z,4.80
2023-04-22T11:46:14.938Z,4.30
2023-04-22T11:48:43.089Z,4.80
2023-04-22T11:51:11.849Z,4.70
2023-04-22T11:53:50.538Z,4.90
2023-04-22T11:56:18.923Z,4.10
2023-04-22T11:58:47.441Z,4.60
2023-04-22T12:01:15.592Z,5.10
2023-04-22T12:03:43.772Z,5.60
2023-04-22T12:06:11.933Z,4.70
2023-04-22T12:08:42.611Z,4.70
2023-04-22T12:11:11.621Z,4.90
2023-04-22T12:13:42.583Z,4.60
2023-04-22T12:16:12.243Z,5.60
2023-04-22T12:18:41.925Z,5.40
2023-04-22T12:21:10.792Z,5.80
2023-04-22T12:23:43.736Z,5.60
2023-04-22T12:26:13.013Z,5.30
2023-04-22T12:28:41.911Z,5.20
2023-04-22T12:31:10.801Z,5.70
2023-04-22T12:33:39.178Z,5.20
2023-04-22T12:36:07.583Z,5.30
2023-04-22T12:38:35.713Z,4.30
2023-04-22T12:41:04.564Z,4.80
2023-04-22T12:43:36.375Z,5.40
2023-04-22T12:46:05.568Z,5.10
2023-04-22T12:48:34.099Z,6.00
2023-04-22T12:51:02.157Z,4.80
2023-04-22T12:53:30.280Z,5.00
2023-04-22T12:55:58.502Z,5.10
2023-04-22T12:58:26.738Z,5.10
2023-04-22T13:00:54.931Z,4.90
2023-04-22T13:03:23.446Z,4.90
2023-04-22T13:05:52.524Z,5.30
2023-04-22T13:08:21.339Z,4.40
2023-04-22T13:10:50.084Z,4.80
2023-04-22T13:13:19.482Z,4.50
2023-04-22T13:15:53.568Z,4.80
2023-04-22T13:18:23.404Z,4.80
2023-04-22T13:20:51.743Z,4.00
2023-04-22T13:23:21.862Z,4.20
2023-04-22T13:25:50.365Z,5.00
2023-04-22T13:28:18.767Z,4.30
2023-04-22T13:30:46.829Z,4.40
2023-04-22T13:33:15.798Z,4.50
2023-04-22T13:35:44.142Z,4.60
2023-04-22T13:38:12.551Z,4.80
2023-04-22T13:40:40.652Z,4.50
2023-04-22T13:43:09.377Z,4.50
2023-04-22T13:45:37.524Z,5.00
2023-04-22T13:48:05.691Z,4.70
2023-04-22T13:50:34.369Z,4.60
2023-04-22T13:53:04.074Z,4.50
2023-04-22T13:55:32.581Z,4.50
2023-04-22T13:58:01.353Z,4.90
2023-04-22T14:00:29.867Z,4.90
2023-04-22T14:02:58.499Z,3.90
2023-04-22T14:05:27.176Z,10.60
2023-04-22T14:07:55.971Z,4.20
2023-04-22T14:10:26.625Z,4.50
2023-04-22T14:12:56.276Z,3.90
2023-04-22T14:15:24.481Z,3.90
2023-04-22T14:17:53.553Z,4.00
2023-04-22T14:20:21.693Z,4.20
2023-04-22T14:22:49.753Z,4.30
2023-04-22T14:25:17.903Z,4.00
2023-04-22T14:27:46.285Z,4.60
2023-04-22T14:30:14.999Z,4.10
2023-04-22T14:32:44.297Z,4.00
2023-04-22T14:35:12.353Z,3.70
2023-04-22T14:37:41.831Z,3.80
2023-04-22T14:40:10.196Z,4.10
2023-04-22T14:42:38.436Z,4.20
2023-04-22T14:45:07.216Z,4.10
2023-04-22T14:47:35.487Z,4.40
2023-04-22T14:50:03.873Z,3.60
2023-04-22T14:52:33.097Z,3.70
2023-04-22T14:55:11.874Z,3.70
2023-04-22T14:57:48.955Z,4.00
2023-04-22T15:00:17.194Z,3.90
2023-04-22T15:02:45.450Z,4.00
2023-04-22T15:05:13.641Z,4.00
2023-04-22T15:07:41.754Z,3.70
2023-04-22T15:10:09.822Z,3.20
2023-04-22T15:12:37.945Z,3.40
2023-04-22T15:15:06.832Z,3.60
2023-04-22T15:17:35.015Z,3.90
2023-04-22T15:20:05.738Z,3.10
2023-04-22T15:22:35.031Z,3.80
2023-04-22T15:25:03.762Z,3.90
2023-04-22T15:27:32.010Z,3.30
2023-04-22T15:30:00.123Z,3.90
2023-04-22T15:32:28.220Z,4.00
2023-04-22T15:34:56.457Z,3.80
2023-04-22T15:37:24.636Z,3.50
2023-04-22T15:39:52.755Z,4.10
2023-04-22T15:42:20.760Z,3.90
2023-04-22T15:44:48.858Z,3.70
2023-04-22T15:47:17.886Z,3.60
2023-04-22T15:49:45.986Z,3.80
2023-04-22T15:52:14.169Z,3.90
2023-04-22T15:54:42.314Z,3.90
2023-04-22T15:57:10.878Z,4.20
2023-04-22T15:59:39.457Z,3.60
2023-04-22T16:02:08.816Z,3.60
2023-04-22T16:04:37.386Z,3.20
2023-04-22T16:07:06.144Z,3.20
2023-04-22T16:09:34.209Z,3.40
2023-04-22T16:12:02.268Z,3.40
2023-04-22T16:14:30.389Z,3.30
2023-04-22T16:16:58.488Z,3.10
2023-04-22T16:19:26.623Z,3.50
2023-04-22T16:21:55.754Z,3.20
2023-04-22T16:24:23.858Z,3.30
2023-04-22T16:26:52.084Z,3.60
2023-04-22T16:29:20.424Z,3.70
2023-04-22T16:31:48.463Z,4.00
2023-04-22T16:34:16.890Z,3.60
2023-04-22T16:36:45.028Z,3.30
2023-04-22T16:39:13.067Z,4.30
2023-04-22T16:41:43.288Z,3.70
2023-04-22T16:44:11.341Z,3.50
2023-04-22T16:46:39.767Z,3.20
2023-04-22T16:49:10.281Z,3.60
2023-04-22T16:51:39.981Z,3.70
2023-04-22T16:54:08.135Z,3.30
2023-04-22T16:56:37.617Z,3.30
2023-04-22T16:59:05.877Z,3.50
2023-04-22T17:01:34.253Z,3.30
2023-04-22T17:04:03.195Z,4.00
2023-04-22T17:06:32.604Z,3.80
2023-04-22T17:09:00.914Z,4.30
2023-04-22T17:11:32.470Z,3.70
2023-04-22T17:14:00.597Z,3.30
2023-04-22T17:16:28.821Z,3.60
2023-04-22T17:18:57.040Z,4.00
2023-04-22T17:21:25.395Z,3.60
2023-04-22T17:23:53.551Z,3.30
2023-04-22T17:26:21.588Z,4.10
2023-04-22T17:28:49.642Z,3.80
2023-04-22T17:31:17.935Z,3.20
2023-04-22T17:33:46.362Z,4.10
2023-04-22T17:36:14.783Z,4.30
2023-04-22T17:38:42.770Z,4.40
2023-04-22T17:41:10.769Z,4.10
2023-04-22T17:43:38.913Z,4.30
2023-04-22T17:46:06.892Z,4.90
2023-04-22T17:48:36.612Z,4.60
2023-04-22T17:51:06.783Z,5.60
2023-04-22T17:53:34.923Z,5.00
2023-04-22T17:56:03.074Z,4.80
2023-04-22T17:58:31.547Z,5.10
2023-04-22T18:00:59.845Z,5.20
2023-04-22T18:03:28.278Z,5.10
2023-04-22T18:05:56.605Z,5.40
2023-04-22T18:08:24.854Z,5.90
2023-04-22T18:10:53.338Z,8.20
2023-04-22T18:13:21.755Z,6.30
2023-04-22T18:15:49.780Z,5.90
2023-04-22T18:18:17.874Z,6.50
2023-04-22T18:20:46.135Z,7.00
2023-04-22T18:23:14.216Z,6.30
2023-04-22T18:25:42.376Z,6.80
2023-04-22T18:28:10.945Z,6.90
2023-04-22T18:30:39.053Z,6.70
2023-04-22T18:33:07.110Z,7.00
2023-04-22T18:35:36.491Z,7.90
2023-04-22T18:38:04.720Z,8.20
2023-04-22T18:40:33.768Z,8.20
2023-04-22T18:43:01.873Z,8.90
2023-04-22T18:45:30.074Z,9.10
2023-04-22T18:47:59.082Z,10.10
2023-04-22T18:50:27.230Z,9.00
2023-04-22T18:52:55.561Z,9.60
2023-04-22T18:55:23.752Z,9.50
2023-04-22T18:57:51.795Z,10.40
2023-04-22T19:00:20.042Z,10.10
2023-04-22T19:02:48.364Z,9.80
2023-04-22T19:05:18.142Z,10.70
2023-04-22T19:07:46.367Z,12.50
2023-04-22T19:10:14.488Z,12.00
2023-04-22T19:12:43.458Z,11.50
2023-04-22T19:15:12.371Z,12.90
2023-04-22T19:17:42.574Z,10.90
2023-04-22T19:20:11.045Z,11.00
2023-04-22T19:22:39.298Z,10.20
2023-04-22T19:25:08.284Z,9.10
2023-04-22T19:27:37.494Z,8.20
2023-04-22T19:30:06.807Z,8.50
2023-04-22T19:32:36.057Z,7.20
2023-04-22T19:35:04.634Z,6.80
2023-04-22T19:37:34.209Z,7.00
2023-04-22T19:40:02.308Z,6.90
2023-04-22T19:42:30.945Z,6.80
2023-04-22T19:44:59.572Z,7.10
2023-04-22T19:47:28.215Z,8.40
2023-04-22T19:49:56.694Z,8.50
2023-04-22T19:52:25.022Z,7.50
2023-04-22T19:54:56.229Z,7.10
2023-04-22T19:57:24.893Z,6.50
2023-04-22T19:59:54.249Z,6.10
2023-04-22T20:02:23.907Z,6.60
2023-04-22T20:04:52.288Z,6.50
2023-04-22T20:07:20.605Z,6.00
2023-04-22T20:09:48.699Z,6.00
2023-04-22T20:12:17.374Z,6.40
2023-04-22T20:14:45.983Z,5.80
2023-04-22T20:17:14.240Z,5.60
2023-04-22T20:19:42.547Z,7.00
2023-04-22T20:22:12.429Z,6.30
2023-04-22T20:24:41.683Z,6.80
2023-04-22T20:27:09.766Z,6.00
2023-04-22T20:29:40.862Z,6.40
2023-04-22T20:32:10.765Z,6.30
2023-04-22T20:34:39.368Z,5.60
2023-04-22T20:37:10.417Z,5.60
2023-04-22T20:39:38.451Z,5.00
2023-04-22T20:42:07.044Z,5.60
2023-04-22T20:44:35.311Z,5.30
2023-04-22T20:47:03.535Z,5.50
2023-04-22T20:49:31.976Z,4.90
2023-04-22T20:52:00.916Z,5.60
2023-04-22T20:54:29.560Z,5.30
2023-04-22T20:56:58.086Z,5.50
2023-04-22T20:59:26.178Z,5.70
2023-04-22T21:01:57.096Z,6.20
2023-04-22T21:04:26.171Z,6.30
2023-04-22T21:06:54.784Z,6.00
2023-04-22T21:09:25.002Z,5.60
2023-04-22T21:11:53.364Z,4.70
2023-04-22T21:14:22.392Z,5.80
2023-04-22T21:16:57.437Z,6.70
2023-04-22T21:19:26.152Z,5.70
2023-04-22T21:21:54.371Z,6.40
2023-04-22T21:24:22.550Z,5.90
2023-04-22T21:26:51.008Z,6.30
2023-04-22T21:29:19.521Z,6.60
2023-04-22T21:32:01.130Z,6.30
2023-04-22T21:34:35.632Z,5.40
2023-04-22T21:37:04.244Z,5.60
2023-04-22T21:39:32.798Z,6.30
2023-04-22T21:42:02.457Z,6.70
2023-04-22T21:44:30.782Z,6.80
2023-04-22T21:46:58.996Z,7.40
2023-04-22T21:49:27.103Z,7.40
2023-04-22T21:51:55.498Z,7.50
2023-04-22T21:54:23.775Z,7.20
2023-04-22T21:56:53.265Z,7.40
2023-04-22T21:59:21.558Z,7.10
2023-04-22T22:01:49.829Z,6.60
2023-04-22T22:04:18.039Z,7.70
2023-04-22T22:06:46.533Z,7.40
2023-04-22T22:09:14.573Z,7.40
2023-04-22T22:11:43.355Z,7.20
2023-04-22T22:14:11.556Z,7.70
2023-04-22T22:16:39.709Z,8.30
2023-04-22T22:19:11.125Z,8.30
2023-04-22T22:21:39.279Z,8.60
2023-04-22T22:24:09.528Z,8.90
2023-04-22T22:26:41.093Z,8.70
2023-04-22T22:29:15.274Z,8.30
2023-04-22T22:31:44.253Z,8.90
2023-04-22T22:34:12.376Z,9.30
2023-04-22T22:36:41.392Z,9.60
2023-04-22T22:39:12.015Z,9.10
2023-04-22T22:41:42.416Z,8.50
2023-04-22T22:44:12.423Z,8.40
2023-04-22T22:46:40.757Z,9.00
2023-04-22T22:49:09.310Z,8.90
2023-04-22T22:51:37.768Z,9.20
2023-04-22T22:54:05.894Z,7.80
2023-04-22T22:56:34.009Z,8.60
2023-04-22T22:59:02.172Z,9.40
2023-04-22T23:14:49.031Z,11.00
2023-04-22T23:17:16.627Z,10.50
2023-04-22T23:19:43.935Z,11.30
2023-04-22T23:22:11.134Z,11.00
2023-04-22T23:24:38.399Z,11.40
2023-04-22T23:27:06.260Z,11.50
2023-04-22T23:29:33.394Z,11.80
2023-04-22T23:32:00.664Z,11.20
2023-04-22T23:34:27.244Z,11.60
2023-04-22T23:36:53.909Z,11.40
2023-04-22T23:39:20.571Z,11.10
2023-04-22T23:41:47.253Z,11.10
2023-04-22T23:44:13.913Z,11.20
2023-04-22T23:46:40.814Z,11.90
2023-04-22T23:49:07.685Z,12.20
2023-04-22T23:51:34.545Z,11.60
2023-04-22T23:54:01.388Z,11.90
2023-04-22T23:56:28.543Z,11.90
2023-04-22T23:58:55.637Z,11.20
